createdAt,value
2023-01-21T00:01:20.109Z,87.60
2023-01-21T00:03:48.622Z,88.10
2023-01-21T00:06:16.763Z,87.67
2023-01-21T00:08:45.246Z,87.70
2023-01-21T00:11:15.411Z,86.76
2023-01-21T00:13:44.784Z,87.22
2023-01-21T00:16:13.686Z,87.69
2023-01-21T00:18:43.409Z,89.20
2023-01-21T00:21:11.614Z,88.60
2023-01-21T00:23:39.971Z,88.31
2023-01-21T00:26:11.521Z,89.45
2023-01-21T00:28:41.781Z,88.72
2023-01-21T00:31:11.728Z,90.34
2023-01-21T00:33:40.145Z,90.61
2023-01-21T00:36:11.745Z,89.20
2023-01-21T00:38:40.025Z,91.80
2023-01-21T00:41:10.297Z,90.81
2023-01-21T00:43:39.483Z,90.09
2023-01-21T00:46:07.815Z,90.37
2023-01-21T00:48:36.492Z,89.61
2023-01-21T00:51:05.096Z,91.64
2023-01-21T00:53:36.437Z,91.27
2023-01-21T00:56:06.583Z,91.68
2023-01-21T00:58:35.139Z,92.05
2023-01-21T01:01:03.775Z,91.92
2023-01-21T01:03:32.050Z,92.42
2023-01-21T01:06:04.230Z,92.72
2023-01-21T01:08:34.434Z,94.37
2023-01-21T01:11:02.641Z,94.62
2023-01-21T01:13:30.939Z,94.59
2023-01-21T01:16:00.263Z,93.94
2023-01-21T01:18:29.637Z,95.22
2023-01-21T01:20:58.281Z,94.85
2023-01-21T01:23:26.753Z,95.03
2023-01-21T01:26:01.714Z,95.46
2023-01-21T01:28:30.639Z,95.29
2023-01-21T01:30:59.211Z,95.94
2023-01-21T01:33:27.946Z,96.52
2023-01-21T01:35:56.128Z,97.42
2023-01-21T01:38:24.361Z,97.04
2023-01-21T01:40:53.797Z,97.02
2023-01-21T01:43:25.158Z,96.90
2023-01-21T01:45:54.211Z,96.19
2023-01-21T01:48:27.614Z,96.83
2023-01-21T01:50:59.235Z,96.55
2023-01-21T01:53:28.164Z,96.82
2023-01-21T01:55:56.864Z,98.04
2023-01-21T01:58:26.538Z,98.22
2023-01-21T02:00:54.808Z,98.34
2023-01-21T02:03:41.335Z,98.50
2023-01-21T02:06:09.567Z,98.53
2023-01-21T02:08:37.948Z,99.01
2023-01-21T02:11:12.596Z,98.50
2023-01-21T02:13:45.974Z,98.33
2023-01-21T02:16:33.456Z,97.01
2023-01-21T02:19:19.584Z,97.05
2023-01-21T02:22:01.284Z,97.04
2023-01-21T02:25:01.955Z,95.34
2023-01-21T02:27:43.199Z,94.86
2023-01-21T02:30:42.774Z,93.72
2023-01-21T02:33:40.091Z,92.88
2023-01-21T02:36:24.553Z,93.03
2023-01-21T02:39:00.114Z,93.64
2023-01-21T02:41:35.096Z,93.49
2023-01-21T02:44:11.478Z,94.21
2023-01-21T02:46:46.137Z,94.90
2023-01-21T02:49:22.597Z,94.84
2023-01-21T02:51:51.121Z,95.24
2023-01-21T02:54:53.797Z,96.12
2023-01-21T02:57:34.931Z,96.59
2023-01-21T03:00:07.681Z,96.42
2023-01-21T03:02:55.017Z,95.54
2023-01-21T03:05:30.454Z,94.10
2023-01-21T03:08:07.012Z,94.11
2023-01-21T03:10:41.554Z,95.43
2023-01-21T03:13:36.672Z,96.32
2023-01-21T03:16:25.544Z,96.23
2023-01-21T03:18:56.055Z,96.97
2023-01-21T03:21:28.559Z,97.22
2023-01-21T03:23:59.048Z,96.98
2023-01-21T03:26:32.212Z,97.60
2023-01-21T03:29:04.285Z,96.95
2023-01-21T03:31:35.062Z,96.40
2023-01-21T03:34:08.253Z,97.20
2023-01-21T03:36:42.094Z,97.52
2023-01-21T03:39:17.932Z,97.22
2023-01-21T03:41:46.267Z,98.09
2023-01-21T03:44:14.386Z,97.31
2023-01-21T03:46:50.751Z,97.87
2023-01-21T03:49:23.915Z,98.35
2023-01-21T03:51:56.677Z,97.63
2023-01-21T03:54:25.163Z,97.34
2023-01-21T03:56:53.238Z,96.94
2023-01-21T03:59:21.328Z,97.31
2023-01-21T04:01:49.562Z,97.19
2023-01-21T04:04:17.637Z,96.68
2023-01-21T04:06:45.810Z,96.14
2023-01-21T04:09:15.337Z,96.67
2023-01-21T04:11:43.530Z,95.69
2023-01-21T04:14:11.549Z,97.49
2023-01-21T04:16:39.741Z,97.57
2023-01-21T04:19:07.905Z,97.60
2023-01-21T04:21:35.981Z,98.30
2023-01-21T04:24:04.073Z,97.76
2023-01-21T04:26:33.561Z,98.40
2023-01-21T04:29:01.661Z,98.43
2023-01-21T04:31:29.841Z,99.40
2023-01-21T04:33:57.881Z,100.00
2023-01-21T04:36:26.275Z,100.00
2023-01-21T04:38:54.361Z,100.00
2023-01-21T04:41:25.169Z,100.00
2023-01-21T04:43:55.089Z,100.00
2023-01-21T04:46:23.489Z,100.00
2023-01-21T04:48:51.609Z,100.00
2023-01-21T04:51:20.018Z,100.00
2023-01-21T04:53:49.999Z,100.00
2023-01-21T04:56:18.987Z,100.00
2023-01-21T04:58:47.130Z,100.00
2023-01-21T05:01:16.633Z,100.00
2023-01-21T05:03:44.885Z,100.00
2023-01-21T05:06:12.938Z,100.00
2023-01-21T05:08:41.100Z,100.00
2023-01-21T05:11:09.892Z,100.00
2023-01-21T05:13:38.046Z,100.00
2023-01-21T05:16:08.493Z,100.00
2023-01-21T05:18:38.572Z,100.00
2023-01-21T05:21:07.285Z,100.00
2023-01-21T05:23:35.452Z,100.00
2023-01-21T05:26:03.626Z,100.00
2023-01-21T05:28:31.727Z,100.00
2023-01-21T05:31:02.494Z,100.00
2023-01-21T05:33:32.469Z,100.00
2023-01-21T05:36:03.166Z,100.00
2023-01-21T05:38:31.857Z,100.00
2023-01-21T05:41:00.398Z,100.00
2023-01-21T05:43:29.031Z,100.00
2023-01-21T05:45:57.614Z,100.00
2023-01-21T05:48:26.220Z,100.00
2023-01-21T05:50:54.972Z,100.00
2023-01-21T05:53:25.501Z,100.00
2023-01-21T05:55:54.286Z,100.00
2023-01-21T05:58:23.500Z,100.00
2023-01-21T06:00:52.183Z,99.83
2023-01-21T06:03:20.444Z,100.00
2023-01-21T06:05:50.809Z,100.00
2023-01-21T06:08:19.213Z,99.48
2023-01-21T06:10:48.686Z,100.00
2023-01-21T06:13:17.299Z,99.05
2023-01-21T06:15:45.445Z,99.91
2023-01-21T06:18:13.585Z,100.00
2023-01-21T06:20:41.665Z,99.53
2023-01-21T06:23:09.807Z,99.08
2023-01-21T06:25:37.913Z,99.97
2023-01-21T06:28:08.093Z,99.77
2023-01-21T06:30:36.268Z,99.39
2023-01-21T06:33:04.439Z,99.26
2023-01-21T06:35:32.662Z,100.00
2023-01-21T06:38:00.871Z,99.44
2023-01-21T06:40:28.962Z,98.98
2023-01-21T06:42:57.074Z,99.41
2023-01-21T06:45:26.493Z,99.27
2023-01-21T06:47:54.732Z,99.69
2023-01-21T06:50:22.842Z,99.18
2023-01-21T06:52:51.094Z,98.91
2023-01-21T06:55:19.361Z,98.42
2023-01-21T06:57:47.487Z,98.65
2023-01-21T07:00:16.551Z,98.51
2023-01-21T07:02:46.504Z,97.81
2023-01-21T07:05:16.062Z,98.48
2023-01-21T07:07:44.514Z,97.65
2023-01-21T07:10:13.032Z,98.14
2023-01-21T07:12:41.099Z,96.61
2023-01-21T07:15:10.357Z,96.58
2023-01-21T07:17:38.484Z,97.01
2023-01-21T07:20:12.335Z,96.29
2023-01-21T07:22:40.821Z,95.93
2023-01-21T07:25:09.723Z,96.40
2023-01-21T07:27:37.795Z,96.74
2023-01-21T07:30:07.429Z,97.10
2023-01-21T07:32:35.657Z,97.46
2023-01-21T07:35:03.747Z,96.85
2023-01-21T07:37:33.268Z,95.63
2023-01-21T07:40:01.385Z,96.30
2023-01-21T07:42:29.393Z,96.57
2023-01-21T07:44:59.590Z,95.41
2023-01-21T07:47:27.741Z,94.41
2023-01-21T07:49:55.798Z,94.95
2023-01-21T07:52:23.965Z,96.56
2023-01-21T07:54:53.428Z,95.14
2023-01-21T07:57:21.546Z,95.28
2023-01-21T07:59:49.639Z,95.63
2023-01-21T08:02:17.924Z,94.44
2023-01-21T08:04:46.062Z,92.04
2023-01-21T08:07:14.284Z,91.75
2023-01-21T08:09:42.497Z,90.59
2023-01-21T08:12:12.186Z,89.39
2023-01-21T08:14:40.308Z,89.57
2023-01-21T08:17:08.400Z,88.67
2023-01-21T08:19:36.551Z,88.10
2023-01-21T08:22:04.648Z,88.46
2023-01-21T08:24:32.874Z,87.30
2023-01-21T08:27:01.584Z,88.26
2023-01-21T08:29:31.464Z,88.71
2023-01-21T08:31:59.883Z,89.92
2023-01-21T08:34:28.071Z,90.49
2023-01-21T08:36:56.198Z,90.41
2023-01-21T08:39:24.354Z,89.11
2023-01-21T08:41:52.508Z,90.15
2023-01-21T08:44:20.748Z,89.28
2023-01-21T08:46:50.595Z,90.91
2023-01-21T08:49:18.684Z,89.99
2023-01-21T08:51:47.105Z,88.84
2023-01-21T08:54:15.285Z,90.07
2023-01-21T08:56:43.331Z,90.97
2023-01-21T08:59:11.625Z,91.83
2023-01-21T09:01:41.143Z,90.36
2023-01-21T09:04:11.293Z,90.59
2023-01-21T09:06:39.411Z,89.59
2023-01-21T09:09:07.567Z,90.42
2023-01-21T09:11:35.720Z,91.22
2023-01-21T09:14:04.444Z,90.56
2023-01-21T09:16:32.919Z,91.11
2023-01-21T09:19:01.664Z,91.70
2023-01-21T09:21:31.559Z,92.36
2023-01-21T09:23:59.720Z,90.78
2023-01-21T09:26:28.012Z,89.30
2023-01-21T09:28:57.749Z,88.87
2023-01-21T09:31:27.883Z,89.24
2023-01-21T09:33:58.137Z,89.76
2023-01-21T09:36:28.674Z,88.56
2023-01-21T09:38:58.759Z,89.27
2023-01-21T09:41:30.733Z,91.01
2023-01-21T09:44:20.211Z,92.15
2023-01-21T09:46:54.811Z,90.78
2023-01-21T09:49:26.277Z,90.77
2023-01-21T09:52:02.463Z,90.29
2023-01-21T09:54:34.001Z,89.37
2023-01-21T09:57:15.134Z,89.50
2023-01-21T09:59:53.475Z,88.50
2023-01-21T10:02:31.188Z,88.89
2023-01-21T10:05:18.384Z,89.30
2023-01-21T10:07:54.708Z,88.04
2023-01-21T10:10:30.964Z,87.32
2023-01-21T10:13:15.534Z,86.95
2023-01-21T10:15:55.398Z,87.05
2023-01-21T10:18:30.716Z,88.00
2023-01-21T10:21:04.990Z,87.70
2023-01-21T10:23:38.940Z,90.94
2023-01-21T10:26:10.601Z,91.84
2023-01-21T10:28:42.044Z,90.84
2023-01-21T10:31:19.561Z,92.09
2023-01-21T10:33:47.906Z,91.17
2023-01-21T10:36:51.716Z,93.76
2023-01-21T10:39:30.148Z,93.34
2023-01-21T10:42:09.454Z,91.63
2023-01-21T10:44:47.160Z,91.60
2023-01-21T10:47:26.372Z,91.74
2023-01-21T10:50:01.232Z,92.76
2023-01-21T10:52:38.607Z,91.41
2023-01-21T10:55:20.315Z,91.31
2023-01-21T10:57:58.579Z,90.36
2023-01-21T11:00:29.721Z,90.16
2023-01-21T11:03:01.427Z,91.52
2023-01-21T11:05:31.935Z,90.18
2023-01-21T11:08:00.829Z,89.34
2023-01-21T11:10:29.412Z,88.49
2023-01-21T11:12:58.958Z,87.63
2023-01-21T11:15:31.562Z,88.43
2023-01-21T11:17:59.990Z,89.01
2023-01-21T11:20:36.570Z,88.06
2023-01-21T11:23:06.913Z,88.21
2023-01-21T11:25:41.139Z,87.26
2023-01-21T11:28:23.998Z,88.45
2023-01-21T11:31:03.994Z,87.58
2023-01-21T11:33:32.461Z,87.27
2023-01-21T11:36:11.691Z,89.81
2023-01-21T11:38:40.313Z,87.50
2023-01-21T11:41:18.622Z,87.79
2023-01-21T11:43:51.276Z,88.11
2023-01-21T11:46:27.890Z,87.99
2023-01-21T11:48:57.666Z,87.41
2023-01-21T11:51:25.873Z,87.23
2023-01-21T11:54:14.003Z,86.46
2023-01-21T11:56:54.508Z,85.74
2023-01-21T11:59:28.024Z,86.51
2023-01-21T12:02:03.859Z,85.96
2023-01-21T12:04:33.843Z,85.04
2023-01-21T12:07:02.411Z,85.56
2023-01-21T12:09:30.924Z,86.12
2023-01-21T12:12:16.865Z,86.54
2023-01-21T12:14:53.294Z,86.08
2023-01-21T12:17:33.374Z,86.93
2023-01-21T12:20:19.484Z,86.87
2023-01-21T12:22:59.633Z,87.41
2023-01-21T12:25:40.868Z,87.90
2023-01-21T12:28:48.567Z,87.03
2023-01-21T12:31:29.597Z,86.45
2023-01-21T12:34:05.541Z,88.35
2023-01-21T12:36:40.280Z,86.45
2023-01-21T12:39:20.892Z,86.86
2023-01-21T12:41:58.142Z,85.97
2023-01-21T12:44:34.923Z,85.56
2023-01-21T12:47:12.679Z,85.36
2023-01-21T12:50:15.367Z,85.90
2023-01-21T12:52:53.757Z,87.02
2023-01-21T12:55:25.707Z,86.86
2023-01-21T12:58:02.536Z,86.62
2023-01-21T13:00:34.449Z,83.86
2023-01-21T13:03:17.754Z,86.24
2023-01-21T13:05:53.761Z,85.15
2023-01-21T13:08:51.176Z,84.08
2023-01-21T13:11:21.547Z,84.33
2023-01-21T13:13:57.633Z,85.25
2023-01-21T13:16:27.403Z,85.01
2023-01-21T13:18:57.519Z,84.74
2023-01-21T13:21:37.672Z,84.87
2023-01-21T13:24:16.234Z,83.78
2023-01-21T13:26:54.280Z,83.96
2023-01-21T13:29:33.182Z,84.81
2023-01-21T13:32:25.418Z,85.84
2023-01-21T13:35:08.892Z,84.68
2023-01-21T13:37:43.267Z,85.58
2023-01-21T13:40:26.438Z,86.15
2023-01-21T13:43:06.851Z,85.59
2023-01-21T13:45:45.729Z,84.81
2023-01-21T13:48:34.390Z,84.97
2023-01-21T13:51:19.806Z,85.51
2023-01-21T13:54:04.583Z,85.58
2023-01-21T13:56:48.412Z,85.66
2023-01-21T13:59:22.629Z,86.25
2023-01-21T14:01:55.677Z,86.27
2023-01-21T14:04:30.482Z,86.01
2023-01-21T14:07:05.968Z,86.50
2023-01-21T14:09:40.039Z,86.86
2023-01-21T14:12:16.869Z,86.44
2023-01-21T14:15:09.427Z,86.77
2023-01-21T14:18:06.108Z,86.20
2023-01-21T14:20:59.884Z,86.44
2023-01-21T14:23:55.659Z,87.18
2023-01-21T14:26:43.201Z,86.14
2023-01-21T14:29:20.157Z,86.98
2023-01-21T14:31:52.747Z,86.39
2023-01-21T14:34:25.420Z,86.79
2023-01-21T14:37:03.550Z,87.00
2023-01-21T14:39:43.211Z,86.53
2023-01-21T14:42:13.494Z,86.50
2023-01-21T14:44:45.889Z,85.96
2023-01-21T14:47:23.588Z,84.90
2023-01-21T14:49:53.919Z,85.70
2023-01-21T14:52:29.661Z,86.69
2023-01-21T14:55:00.929Z,86.96
2023-01-21T14:57:32.420Z,87.38
2023-01-21T15:00:13.431Z,86.63
2023-01-21T15:02:44.817Z,86.64
2023-01-21T15:05:19.985Z,86.79
2023-01-21T15:07:51.153Z,86.10
2023-01-21T15:10:22.679Z,86.80
2023-01-21T15:12:55.278Z,86.27
2023-01-21T15:15:31.614Z,85.82
2023-01-21T15:18:24.445Z,86.26
2023-01-21T15:20:57.954Z,86.69
2023-01-21T15:23:39.678Z,86.94
2023-01-21T15:26:32.291Z,87.52
2023-01-21T15:29:25.227Z,87.32
2023-01-21T15:31:54.153Z,88.01
2023-01-21T15:34:23.747Z,87.11
2023-01-21T15:36:58.082Z,87.64
2023-01-21T15:39:33.702Z,86.90
2023-01-21T15:42:17.058Z,86.24
2023-01-21T15:45:06.456Z,86.71
2023-01-21T15:47:52.701Z,87.09
2023-01-21T15:50:23.205Z,86.63
2023-01-21T15:53:05.880Z,86.98
2023-01-21T15:55:55.563Z,86.76
2023-01-21T15:58:39.735Z,87.14
2023-01-21T16:01:17.435Z,86.99
2023-01-21T16:03:58.500Z,87.32
2023-01-21T16:06:38.262Z,87.72
2023-01-21T16:09:08.473Z,87.49
2023-01-21T16:11:53.456Z,87.23
2023-01-21T16:14:43.603Z,86.95
2023-01-21T16:17:21.013Z,87.06
2023-01-21T16:19:53.186Z,87.86
2023-01-21T16:22:26.844Z,87.47
2023-01-21T16:25:01.170Z,86.62
2023-01-21T16:27:31.858Z,86.95
2023-01-21T16:30:03.171Z,87.27
2023-01-21T16:32:32.748Z,87.02
2023-01-21T16:35:01.889Z,86.58
2023-01-21T16:37:31.554Z,87.61
2023-01-21T16:40:28.048Z,85.52
2023-01-21T16:43:12.741Z,87.19
2023-01-21T16:45:50.492Z,87.27
2023-01-21T16:48:23.947Z,85.84
2023-01-21T16:50:53.455Z,86.04
2023-01-21T16:53:23.362Z,85.40
2023-01-21T16:55:53.502Z,86.60
2023-01-21T16:58:32.697Z,85.95
2023-01-21T17:01:06.538Z,86.39
2023-01-21T17:03:34.954Z,85.19
2023-01-21T17:06:21.140Z,86.52
2023-01-21T17:08:54.029Z,86.41
2023-01-21T17:11:23.581Z,86.03
2023-01-21T17:13:53.185Z,86.47
2023-01-21T17:16:28.875Z,86.97
2023-01-21T17:18:59.361Z,87.14
2023-01-21T17:21:38.333Z,86.84
2023-01-21T17:24:17.421Z,87.00
2023-01-21T17:26:49.359Z,85.85
2023-01-21T17:29:21.917Z,84.98
2023-01-21T17:31:58.443Z,85.40
2023-01-21T17:34:28.927Z,85.83
2023-01-21T17:36:57.911Z,85.91
2023-01-21T17:39:57.931Z,82.36
2023-01-21T17:42:40.759Z,83.34
2023-01-21T17:45:19.773Z,86.97
2023-01-21T17:48:12.579Z,89.61
2023-01-21T17:50:47.162Z,90.49
2023-01-21T17:53:22.295Z,88.95
2023-01-21T17:55:59.239Z,89.39
2023-01-21T17:58:46.144Z,89.06
2023-01-21T18:01:14.794Z,87.65
2023-01-21T18:03:44.461Z,88.55
2023-01-21T18:06:18.998Z,87.75
2023-01-21T18:08:47.271Z,86.87
2023-01-21T18:11:16.827Z,87.26
2023-01-21T18:13:45.333Z,87.16
2023-01-21T18:16:13.560Z,83.92
2023-01-21T18:18:42.069Z,83.46
2023-01-21T18:21:18.517Z,86.42
2023-01-21T18:23:46.966Z,84.26
2023-01-21T18:26:27.517Z,83.61
2023-01-21T18:28:55.610Z,85.50
2023-01-21T18:31:24.054Z,87.85
2023-01-21T18:33:52.424Z,87.62
2023-01-21T18:36:22.017Z,86.13
2023-01-21T18:38:50.092Z,87.27
2023-01-21T18:41:18.214Z,87.03
2023-01-21T18:43:46.299Z,85.97
2023-01-21T18:46:16.385Z,85.99
2023-01-21T18:48:44.747Z,86.44
2023-01-21T18:51:14.733Z,85.98
2023-01-21T18:53:44.277Z,86.51
2023-01-21T18:56:15.020Z,86.40
2023-01-21T18:58:43.529Z,86.22
2023-01-21T19:01:22.664Z,86.62
2023-01-21T19:03:54.814Z,86.18
2023-01-21T19:06:24.818Z,86.52
2023-01-21T19:08:55.264Z,84.81
2023-01-21T19:11:23.646Z,85.62
2023-01-21T19:13:51.716Z,84.59
2023-01-21T19:16:21.644Z,86.04
2023-01-21T19:18:50.001Z,85.95
2023-01-21T19:21:18.112Z,86.35
2023-01-21T19:23:46.372Z,86.37
2023-01-21T19:26:15.876Z,86.31
2023-01-21T19:28:44.121Z,86.46
2023-01-21T19:31:12.321Z,86.68
2023-01-21T19:33:42.912Z,86.65
2023-01-21T19:36:16.658Z,86.65
2023-01-21T19:38:51.586Z,86.14
2023-01-21T19:41:21.171Z,85.77
2023-01-21T19:43:49.259Z,85.88
2023-01-21T19:46:17.922Z,85.13
2023-01-21T19:48:49.986Z,86.03
2023-01-21T19:51:18.213Z,85.78
2023-01-21T19:53:46.493Z,85.68
2023-01-21T19:56:17.125Z,85.66
2023-01-21T19:58:46.718Z,86.32
2023-01-21T20:01:14.881Z,86.22
2023-01-21T20:03:58.692Z,86.28
2023-01-21T20:06:31.256Z,86.91
2023-01-21T20:09:00.866Z,86.56
2023-01-21T20:11:28.927Z,86.75
2023-01-21T20:13:58.541Z,86.78
2023-01-21T20:16:27.355Z,86.82
2023-01-21T20:18:56.377Z,86.39
2023-01-21T20:21:24.643Z,85.96
2023-01-21T20:23:52.803Z,85.96
2023-01-21T20:26:26.017Z,86.11
2023-01-21T20:28:54.699Z,86.36
2023-01-21T20:31:24.482Z,86.13
2023-01-21T20:33:52.741Z,87.04
2023-01-21T20:36:23.487Z,86.78
2023-01-21T20:38:52.121Z,86.52
2023-01-21T20:41:20.481Z,86.59
2023-01-21T20:43:48.829Z,86.67
2023-01-21T20:46:19.649Z,86.02
2023-01-21T20:48:50.598Z,85.96
2023-01-21T20:51:19.086Z,86.15
2023-01-21T20:53:47.243Z,86.26
2023-01-21T20:56:19.847Z,85.12
2023-01-21T20:58:48.913Z,86.63
2023-01-21T21:01:19.215Z,87.15
2023-01-21T21:03:48.912Z,85.56
2023-01-21T21:06:19.457Z,86.10
2023-01-21T21:08:48.456Z,86.12
2023-01-21T21:11:17.913Z,86.48
2023-01-21T21:13:48.384Z,86.29
2023-01-21T21:16:23.236Z,85.70
2023-01-21T21:18:53.206Z,86.17
2023-01-21T21:21:23.676Z,85.39
2023-01-21T21:23:52.766Z,86.98
2023-01-21T21:26:23.168Z,86.79
2023-01-21T21:28:54.774Z,85.75
2023-01-21T21:31:24.246Z,85.77
2023-01-21T21:33:53.927Z,86.13
2023-01-21T21:36:24.706Z,85.71
2023-01-21T21:38:55.723Z,86.27
2023-01-21T21:41:43.690Z,84.42
2023-01-21T21:44:13.203Z,86.78
2023-01-21T21:46:59.159Z,85.61
2023-01-21T21:49:29.698Z,86.02
2023-01-21T21:52:00.343Z,85.50
2023-01-21T21:54:28.626Z,85.69
2023-01-21T21:56:56.746Z,85.30
2023-01-21T21:59:24.926Z,85.61
2023-01-21T22:01:53.022Z,85.26
2023-01-21T22:04:23.117Z,84.91
2023-01-21T22:06:52.805Z,86.09
2023-01-21T22:09:20.979Z,86.48
2023-01-21T22:11:49.077Z,86.21
2023-01-21T22:14:18.131Z,86.66
2023-01-21T22:16:46.479Z,86.54
2023-01-21T22:19:14.824Z,85.22
2023-01-21T22:21:43.007Z,85.27
2023-01-21T22:24:12.902Z,85.52
2023-01-21T22:26:41.045Z,84.74
2023-01-21T22:29:09.287Z,85.40
2023-01-21T22:31:37.607Z,85.23
2023-01-21T22:34:06.372Z,85.35
2023-01-21T22:36:34.694Z,85.95
2023-01-21T22:39:03.143Z,86.13
2023-01-21T22:41:32.935Z,85.06
2023-01-21T22:44:01.064Z,84.40
2023-01-21T22:46:31.521Z,85.26
2023-01-21T22:48:59.769Z,85.05
2023-01-21T22:51:28.733Z,85.04
2023-01-21T22:53:57.043Z,85.05
2023-01-21T22:56:44.852Z,85.35
2023-01-21T22:59:16.032Z,85.22
2023-01-21T23:01:44.252Z,85.63
2023-01-21T23:04:12.422Z,85.29
2023-01-21T23:06:40.621Z,86.17
2023-01-21T23:09:11.294Z,85.73
2023-01-21T23:11:40.044Z,86.21
2023-01-21T23:14:09.601Z,85.40
2023-01-21T23:16:39.483Z,86.43
2023-01-21T23:19:07.670Z,84.95
2023-01-21T23:21:37.669Z,86.21
2023-01-21T23:24:06.361Z,86.37
2023-01-21T23:26:34.517Z,85.94
2023-01-21T23:29:02.591Z,86.18
2023-01-21T23:31:30.807Z,85.82
2023-01-21T23:34:00.457Z,85.87
2023-01-21T23:36:28.954Z,86.35
2023-01-21T23:38:57.068Z,85.46
2023-01-21T23:41:25.231Z,85.46
2023-01-21T23:43:53.306Z,85.56
2023-01-21T23:46:21.489Z,85.99
2023-01-21T23:48:49.628Z,85.86
2023-01-21T23:51:19.717Z,85.65
2023-01-21T23:53:49.073Z,85.89
2023-01-21T23:56:19.244Z,85.85
2023-01-21T23:58:47.515Z,85.21
